sensor_id;sensor_type;location;lat;lon;timestamp;pressure;altitude;pressure_sealevel;temperature;humidity
31595;BME280;18200;48.726;8.892;2023-01-28T00:02:29;97245.75;;;12.36;37.98
31595;BME280;18200;48.726;8.892;2023-01-28T00:06:30;97242.47;;;12.66;37.18
31595;BME280;18200;48.726;8.892;2023-01-28T00:10:31;97228.31;;;11.61;38.65
31595;BME280;18200;48.726;8.892;2023-01-28T00:14:31;97241.31;;;11.90;38.76
31595;BME280;18200;48.726;8.892;2023-01-28T00:18:32;97232.44;;;11.24;39.19
31595;BME280;18200;48.726;8.892;2023-01-28T00:22:32;97235.00;;;12.02;37.78
31595;BME280;18200;48.726;8.892;2023-01-28T00:26:32;97236.88;;;11.82;38.31
31595;BME280;18200;48.726;8.892;2023-01-28T00:30:33;97246.13;;;12.54;37.38
31595;BME280;18200;48.726;8.892;2023-01-28T00:34:33;97238.28;;;12.11;37.97
31595;BME280;18200;48.726;8.892;2023-01-28T00:38:34;97236.00;;;13.57;35.36
31595;BME280;18200;48.726;8.892;2023-01-28T00:42:34;97233.72;;;11.14;40.54
31595;BME280;18200;48.726;8.892;2023-01-28T00:46:35;97230.91;;;12.27;37.74
31595;BME280;18200;48.726;8.892;2023-01-28T00:50:36;97235.81;;;12.40;37.64
31595;BME280;18200;48.726;8.892;2023-01-28T00:54:36;97235.16;;;11.74;38.33
31595;BME280;18200;48.726;8.892;2023-01-28T00:58:36;97241.59;;;10.91;40.26
31595;BME280;18200;48.726;8.892;2023-01-28T01:02:37;97225.19;;;12.09;37.61
31595;BME280;18200;48.726;8.892;2023-01-28T01:06:39;97226.03;;;12.52;37.33
31595;BME280;18200;48.726;8.892;2023-01-28T01:10:40;97221.28;;;12.87;36.67
31595;BME280;18200;48.726;8.892;2023-01-28T01:14:40;97223.03;;;12.57;37.07
31595;BME280;18200;48.726;8.892;2023-01-28T01:18:41;97236.91;;;12.01;37.68
31595;BME280;18200;48.726;8.892;2023-01-28T01:22:43;97233.75;;;11.80;38.07
31595;BME280;18200;48.726;8.892;2023-01-28T01:26:43;97234.13;;;12.32;37.47
31595;BME280;18200;48.726;8.892;2023-01-28T01:30:44;97233.13;;;12.21;37.73
31595;BME280;18200;48.726;8.892;2023-01-28T01:34:46;97237.34;;;12.03;38.66
31595;BME280;18200;48.726;8.892;2023-01-28T01:38:47;97238.31;;;12.49;37.33
31595;BME280;18200;48.726;8.892;2023-01-28T01:42:47;97247.28;;;12.18;37.57
31595;BME280;18200;48.726;8.892;2023-01-28T01:46:49;97242.91;;;13.32;36.70
31595;BME280;18200;48.726;8.892;2023-01-28T01:50:55;97257.50;;;12.86;36.63
31595;BME280;18200;48.726;8.892;2023-01-28T01:54:58;97246.66;;;13.24;36.44
31595;BME280;18200;48.726;8.892;2023-01-28T01:59:00;97246.19;;;13.93;35.34
31595;BME280;18200;48.726;8.892;2023-01-28T02:03:00;97251.31;;;13.27;35.63
31595;BME280;18200;48.726;8.892;2023-01-28T02:07:01;97245.91;;;13.27;35.77
31595;BME280;18200;48.726;8.892;2023-01-28T02:11:04;97243.25;;;14.06;35.32
31595;BME280;18200;48.726;8.892;2023-01-28T02:15:12;97243.91;;;12.60;37.69
31595;BME280;18200;48.726;8.892;2023-01-28T02:19:16;97242.03;;;12.83;37.04
31595;BME280;18200;48.726;8.892;2023-01-28T02:32:03;97248.72;;;12.31;37.73
31595;BME280;18200;48.726;8.892;2023-01-28T02:36:20;97246.28;;;11.88;39.04
31595;BME280;18200;48.726;8.892;2023-01-28T02:40:32;97257.44;;;12.44;37.71
31595;BME280;18200;48.726;8.892;2023-01-28T02:44:53;97242.19;;;12.71;37.52
31595;BME280;18200;48.726;8.892;2023-01-28T02:48:53;97254.94;;;12.35;37.82
31595;BME280;18200;48.726;8.892;2023-01-28T02:53:10;97254.28;;;13.67;35.45
31595;BME280;18200;48.726;8.892;2023-01-28T02:57:44;97259.78;;;12.65;37.19
31595;BME280;18200;48.726;8.892;2023-01-28T03:01:52;97259.38;;;11.90;38.77
31595;BME280;18200;48.726;8.892;2023-01-28T03:06:00;97262.56;;;11.95;38.58
31595;BME280;18200;48.726;8.892;2023-01-28T03:10:11;97270.94;;;11.90;39.32
31595;BME280;18200;48.726;8.892;2023-01-28T03:14:16;97280.13;;;11.58;39.75
31595;BME280;18200;48.726;8.892;2023-01-28T03:18:54;97268.53;;;13.00;36.91
31595;BME280;18200;48.726;8.892;2023-01-28T03:23:20;97271.69;;;12.64;38.57
31595;BME280;18200;48.726;8.892;2023-01-28T03:27:49;97269.09;;;13.77;36.21
31595;BME280;18200;48.726;8.892;2023-01-28T03:32:10;97265.88;;;12.42;37.96
31595;BME280;18200;48.726;8.892;2023-01-28T03:36:31;97264.97;;;13.60;36.42
31595;BME280;18200;48.726;8.892;2023-01-28T03:41:20;97264.28;;;13.18;37.66
31595;BME280;18200;48.726;8.892;2023-01-28T03:45:21;97268.72;;;12.30;39.50
31595;BME280;18200;48.726;8.892;2023-01-28T03:49:22;97273.38;;;13.10;37.91
31595;BME280;18200;48.726;8.892;2023-01-28T03:53:23;97280.34;;;13.56;37.54
31595;BME280;18200;48.726;8.892;2023-01-28T03:57:27;97280.28;;;13.30;38.18
31595;BME280;18200;48.726;8.892;2023-01-28T04:01:30;97278.66;;;12.65;39.71
31595;BME280;18200;48.726;8.892;2023-01-28T04:05:30;97276.50;;;13.57;37.98
31595;BME280;18200;48.726;8.892;2023-01-28T04:09:33;97276.25;;;13.01;38.92
31595;BME280;18200;48.726;8.892;2023-01-28T04:13:55;97278.34;;;12.89;39.17
31595;BME280;18200;48.726;8.892;2023-01-28T04:17:56;97281.47;;;12.91;39.71
31595;BME280;18200;48.726;8.892;2023-01-28T04:22:00;97280.41;;;13.37;39.15
31595;BME280;18200;48.726;8.892;2023-01-28T04:26:01;97289.44;;;12.65;40.37
31595;BME280;18200;48.726;8.892;2023-01-28T04:30:03;97296.97;;;11.55;42.35
31595;BME280;18200;48.726;8.892;2023-01-28T04:34:11;97299.47;;;11.17;43.09
31595;BME280;18200;48.726;8.892;2023-01-28T04:38:32;97302.41;;;12.40;41.06
31595;BME280;18200;48.726;8.892;2023-01-28T04:42:39;97302.13;;;12.83;40.31
31595;BME280;18200;48.726;8.892;2023-01-28T04:46:45;97300.84;;;14.10;37.60
31595;BME280;18200;48.726;8.892;2023-01-28T04:51:05;97307.59;;;13.96;37.91
31595;BME280;18200;48.726;8.892;2023-01-28T04:55:09;97313.28;;;13.91;37.68
31595;BME280;18200;48.726;8.892;2023-01-28T04:59:10;97310.38;;;14.56;36.70
31595;BME280;18200;48.726;8.892;2023-01-28T05:03:12;97305.00;;;14.30;37.19
31595;BME280;18200;48.726;8.892;2023-01-28T05:07:12;97306.34;;;14.43;36.48
31595;BME280;18200;48.726;8.892;2023-01-28T05:11:13;97308.97;;;14.13;37.43
31595;BME280;18200;48.726;8.892;2023-01-28T05:15:15;97318.28;;;13.89;37.50
31595;BME280;18200;48.726;8.892;2023-01-28T05:19:15;97320.47;;;14.07;37.18
31595;BME280;18200;48.726;8.892;2023-01-28T05:23:19;97320.38;;;12.71;39.69
31595;BME280;18200;48.726;8.892;2023-01-28T05:27:24;97325.16;;;13.19;39.30
31595;BME280;18200;48.726;8.892;2023-01-28T05:31:25;97324.06;;;12.63;40.16
31595;BME280;18200;48.726;8.892;2023-01-28T05:35:26;97322.31;;;13.76;37.90
31595;BME280;18200;48.726;8.892;2023-01-28T05:39:26;97317.94;;;14.43;36.98
31595;BME280;18200;48.726;8.892;2023-01-28T05:43:26;97320.22;;;14.71;36.49
31595;BME280;18200;48.726;8.892;2023-01-28T05:47:39;97335.28;;;13.45;37.69
31595;BME280;18200;48.726;8.892;2023-01-28T05:51:57;97330.56;;;14.36;36.93
31595;BME280;18200;48.726;8.892;2023-01-28T05:55:58;97335.56;;;14.34;36.59
31595;BME280;18200;48.726;8.892;2023-01-28T05:59:59;97337.28;;;14.75;36.42
31595;BME280;18200;48.726;8.892;2023-01-28T06:04:00;97337.34;;;14.52;36.66
31595;BME280;18200;48.726;8.892;2023-01-28T06:08:04;97339.13;;;14.15;36.80
31595;BME280;18200;48.726;8.892;2023-01-28T06:12:04;97347.50;;;13.16;38.90
31595;BME280;18200;48.726;8.892;2023-01-28T06:16:12;97341.94;;;13.73;37.89
31595;BME280;18200;48.726;8.892;2023-01-28T06:20:20;97359.09;;;13.62;37.61
31595;BME280;18200;48.726;8.892;2023-01-28T06:24:22;97366.16;;;13.47;38.09
31595;BME280;18200;48.726;8.892;2023-01-28T06:28:23;97366.78;;;12.45;40.10
31595;BME280;18200;48.726;8.892;2023-01-28T06:32:24;97373.47;;;13.47;38.20
31595;BME280;18200;48.726;8.892;2023-01-28T06:36:24;97372.13;;;13.56;38.62
31595;BME280;18200;48.726;8.892;2023-01-28T06:40:24;97383.69;;;13.57;38.07
31595;BME280;18200;48.726;8.892;2023-01-28T06:44:25;97386.13;;;14.11;37.26
31595;BME280;18200;48.726;8.892;2023-01-28T06:48:26;97385.19;;;13.54;38.21
31595;BME280;18200;48.726;8.892;2023-01-28T06:52:26;97393.28;;;12.97;39.59
31595;BME280;18200;48.726;8.892;2023-01-28T06:56:27;97393.78;;;13.18;39.21
31595;BME280;18200;48.726;8.892;2023-01-28T07:00:27;97391.84;;;13.83;38.84
31595;BME280;18200;48.726;8.892;2023-01-28T07:04:27;97395.66;;;14.27;37.04
31595;BME280;18200;48.726;8.892;2023-01-28T07:08:28;97399.34;;;14.64;37.68
31595;BME280;18200;48.726;8.892;2023-01-28T07:12:29;97393.63;;;14.43;36.90
31595;BME280;18200;48.726;8.892;2023-01-28T07:16:30;97396.44;;;14.80;36.12
31595;BME280;18200;48.726;8.892;2023-01-28T07:20:30;97409.03;;;14.39;36.79
31595;BME280;18200;48.726;8.892;2023-01-28T07:24:30;97403.81;;;14.53;36.69
31595;BME280;18200;48.726;8.892;2023-01-28T07:28:32;97406.09;;;14.51;36.84
31595;BME280;18200;48.726;8.892;2023-01-28T07:32:32;97413.38;;;14.25;37.69
31595;BME280;18200;48.726;8.892;2023-01-28T07:36:33;97407.75;;;14.11;37.67
31595;BME280;18200;48.726;8.892;2023-01-28T07:40:33;97415.97;;;14.40;36.83
31595;BME280;18200;48.726;8.892;2023-01-28T07:44:33;97420.19;;;14.64;37.02
31595;BME280;18200;48.726;8.892;2023-01-28T07:48:34;97422.28;;;14.48;36.67
31595;BME280;18200;48.726;8.892;2023-01-28T07:52:36;97421.28;;;13.08;39.00
31595;BME280;18200;48.726;8.892;2023-01-28T07:56:43;97429.84;;;14.16;37.63
31595;BME280;18200;48.726;8.892;2023-01-28T08:00:43;97442.88;;;13.46;38.53
31595;BME280;18200;48.726;8.892;2023-01-28T08:04:45;97444.25;;;14.24;38.12
31595;BME280;18200;48.726;8.892;2023-01-28T08:08:48;97445.72;;;13.34;38.79
31595;BME280;18200;48.726;8.892;2023-01-28T08:12:53;97441.03;;;14.63;37.23
31595;BME280;18200;48.726;8.892;2023-01-28T08:16:53;97450.97;;;13.27;38.60
31595;BME280;18200;48.726;8.892;2023-01-28T08:20:56;97447.25;;;13.73;39.17
31595;BME280;18200;48.726;8.892;2023-01-28T08:24:56;97456.69;;;14.51;37.12
31595;BME280;18200;48.726;8.892;2023-01-28T08:28:57;97453.13;;;13.79;38.35
31595;BME280;18200;48.726;8.892;2023-01-28T08:32:58;97451.06;;;14.63;36.96
31595;BME280;18200;48.726;8.892;2023-01-28T08:36:58;97460.19;;;13.64;38.79
31595;BME280;18200;48.726;8.892;2023-01-28T08:40:59;97457.09;;;14.79;37.02
31595;BME280;18200;48.726;8.892;2023-01-28T08:44:59;97457.94;;;14.57;37.17
31595;BME280;18200;48.726;8.892;2023-01-28T08:48:59;97455.22;;;14.57;37.52
31595;BME280;18200;48.726;8.892;2023-01-28T08:53:14;97455.97;;;14.31;37.87
31595;BME280;18200;48.726;8.892;2023-01-28T08:57:15;97460.38;;;15.21;36.44
31595;BME280;18200;48.726;8.892;2023-01-28T09:01:15;97460.81;;;14.97;35.90
31595;BME280;18200;48.726;8.892;2023-01-28T09:05:16;97462.72;;;15.52;35.77
31595;BME280;18200;48.726;8.892;2023-01-28T09:09:16;97468.81;;;15.16;35.57
31595;BME280;18200;48.726;8.892;2023-01-28T09:13:17;97465.63;;;14.81;35.95
31595;BME280;18200;48.726;8.892;2023-01-28T09:17:18;97476.19;;;14.37;38.14
31595;BME280;18200;48.726;8.892;2023-01-28T09:21:19;97465.63;;;15.07;36.69
31595;BME280;18200;48.726;8.892;2023-01-28T09:25:20;97479.50;;;14.53;36.93
31595;BME280;18200;48.726;8.892;2023-01-28T09:29:20;97479.16;;;15.07;36.38
31595;BME280;18200;48.726;8.892;2023-01-28T09:33:21;97491.72;;;14.93;36.24
31595;BME280;18200;48.726;8.892;2023-01-28T09:37:21;97492.69;;;15.07;36.31
31595;BME280;18200;48.726;8.892;2023-01-28T09:41:23;97495.69;;;14.50;36.16
31595;BME280;18200;48.726;8.892;2023-01-28T09:45:34;97502.31;;;14.78;35.61
31595;BME280;18200;48.726;8.892;2023-01-28T09:49:41;97501.31;;;14.64;35.75
31595;BME280;18200;48.726;8.892;2023-01-28T09:53:47;97502.72;;;14.32;37.82
31595;BME280;18200;48.726;8.892;2023-01-28T09:57:53;97496.28;;;15.44;35.12
31595;BME280;18200;48.726;8.892;2023-01-28T10:02:15;97515.88;;;12.99;40.09
31595;BME280;18200;48.726;8.892;2023-01-28T10:06:29;97510.94;;;14.39;37.11
31595;BME280;18200;48.726;8.892;2023-01-28T10:10:49;97504.63;;;13.89;37.90
31595;BME280;18200;48.726;8.892;2023-01-28T10:19:31;97502.53;;;13.60;38.93
31595;BME280;18200;48.726;8.892;2023-01-28T10:23:51;97508.72;;;11.94;42.38
31595;BME280;18200;48.726;8.892;2023-01-28T10:27:54;97501.78;;;12.56;41.29
31595;BME280;18200;48.726;8.892;2023-01-28T10:31:58;97494.44;;;14.25;38.29
31595;BME280;18200;48.726;8.892;2023-01-28T10:36:02;97493.94;;;14.87;36.84
31595;BME280;18200;48.726;8.892;2023-01-28T10:40:03;97498.84;;;13.68;38.46
31595;BME280;18200;48.726;8.892;2023-01-28T10:44:04;97490.44;;;14.15;38.21
31595;BME280;18200;48.726;8.892;2023-01-28T10:48:10;97493.28;;;14.45;37.56
31595;BME280;18200;48.726;8.892;2023-01-28T10:52:15;97490.34;;;14.31;37.11
31595;BME280;18200;48.726;8.892;2023-01-28T10:56:28;97495.28;;;14.74;36.25
31595;BME280;18200;48.726;8.892;2023-01-28T11:00:34;97492.72;;;13.52;39.37
31595;BME280;18200;48.726;8.892;2023-01-28T11:04:35;97495.69;;;14.50;37.42
31595;BME280;18200;48.726;8.892;2023-01-28T11:08:42;97487.06;;;14.93;36.92
31595;BME280;18200;48.726;8.892;2023-01-28T11:12:54;97494.31;;;14.37;38.12
31595;BME280;18200;48.726;8.892;2023-01-28T11:16:56;97492.59;;;13.45;38.92
31595;BME280;18200;48.726;8.892;2023-01-28T11:20:59;97481.84;;;14.55;37.28
31595;BME280;18200;48.726;8.892;2023-01-28T11:29:24;97486.03;;;14.75;37.31
31595;BME280;18200;48.726;8.892;2023-01-28T11:33:38;97489.97;;;14.81;36.27
31595;BME280;18200;48.726;8.892;2023-01-28T11:37:47;97492.44;;;13.19;38.89
31595;BME280;18200;48.726;8.892;2023-01-28T11:41:48;97500.91;;;12.52;40.91
31595;BME280;18200;48.726;8.892;2023-01-28T11:45:58;97497.00;;;13.53;39.02
31595;BME280;18200;48.726;8.892;2023-01-28T11:50:37;97495.50;;;14.88;36.18
31595;BME280;18200;48.726;8.892;2023-01-28T12:04:11;97490.66;;;12.41;40.46
31595;BME280;18200;48.726;8.892;2023-01-28T12:08:25;97494.38;;;12.53;40.95
31595;BME280;18200;48.726;8.892;2023-01-28T12:17:07;97495.72;;;12.78;40.93
31595;BME280;18200;48.726;8.892;2023-01-28T12:21:25;97495.16;;;13.38;39.66
31595;BME280;18200;48.726;8.892;2023-01-28T12:34:27;97502.59;;;11.14;43.62
31595;BME280;18200;48.726;8.892;2023-01-28T12:39:00;97497.84;;;13.19;40.68
31595;BME280;18200;48.726;8.892;2023-01-28T12:43:21;97495.47;;;14.17;37.91
31595;BME280;18200;48.726;8.892;2023-01-28T12:47:34;97499.44;;;13.58;38.93
31595;BME280;18200;48.726;8.892;2023-01-28T12:51:52;97485.75;;;13.70;39.18
31595;BME280;18200;48.726;8.892;2023-01-28T12:56:18;97488.22;;;13.02;40.58
31595;BME280;18200;48.726;8.892;2023-01-28T13:00:37;97489.69;;;13.35;40.54
31595;BME280;18200;48.726;8.892;2023-01-28T13:04:46;97477.81;;;13.58;40.13
31595;BME280;18200;48.726;8.892;2023-01-28T13:08:49;97475.22;;;13.84;39.68
31595;BME280;18200;48.726;8.892;2023-01-28T13:12:55;97489.31;;;11.61;44.88
31595;BME280;18200;48.726;8.892;2023-01-28T13:17:24;97480.25;;;12.90;41.94
31595;BME280;18200;48.726;8.892;2023-01-28T13:25:27;97482.19;;;13.85;40.38
31595;BME280;18200;48.726;8.892;2023-01-28T13:29:32;97481.59;;;13.95;39.83
31595;BME280;18200;48.726;8.892;2023-01-28T13:33:38;97496.38;;;11.65;44.85
31595;BME280;18200;48.726;8.892;2023-01-28T13:37:44;97507.00;;;12.48;43.25
31595;BME280;18200;48.726;8.892;2023-01-28T13:41:48;97498.88;;;13.91;40.18
31595;BME280;18200;48.726;8.892;2023-01-28T13:45:57;97504.91;;;12.58;42.51
31595;BME280;18200;48.726;8.892;2023-01-28T13:50:05;97504.94;;;12.26;43.06
31595;BME280;18200;48.726;8.892;2023-01-28T13:54:13;97501.94;;;14.12;40.03
31595;BME280;18200;48.726;8.892;2023-01-28T13:58:49;97515.44;;;13.13;42.02
31595;BME280;18200;48.726;8.892;2023-01-28T14:12:00;97518.72;;;13.22;41.60
31595;BME280;18200;48.726;8.892;2023-01-28T14:16:29;97520.47;;;12.80;42.19
31595;BME280;18200;48.726;8.892;2023-01-28T14:20:40;97532.81;;;11.75;44.46
31595;BME280;18200;48.726;8.892;2023-01-28T14:24:43;97529.34;;;11.35;45.80
31595;BME280;18200;48.726;8.892;2023-01-28T14:29:12;97543.16;;;12.48;42.38
31595;BME280;18200;48.726;8.892;2023-01-28T14:33:16;97550.56;;;11.24;45.57
31595;BME280;18200;48.726;8.892;2023-01-28T14:37:21;97547.50;;;12.68;43.36
31595;BME280;18200;48.726;8.892;2023-01-28T14:41:25;97540.31;;;11.97;43.19
31595;BME280;18200;48.726;8.892;2023-01-28T14:58:29;97559.50;;;12.86;41.35
31595;BME280;18200;48.726;8.892;2023-01-28T15:02:31;97571.13;;;12.27;43.15
31595;BME280;18200;48.726;8.892;2023-01-28T15:06:35;97574.63;;;11.33;43.37
31595;BME280;18200;48.726;8.892;2023-01-28T15:10:36;97577.75;;;13.08;41.01
31595;BME280;18200;48.726;8.892;2023-01-28T15:14:37;97574.63;;;12.75;41.29
31595;BME280;18200;48.726;8.892;2023-01-28T15:18:42;97578.13;;;13.60;39.90
31595;BME280;18200;48.726;8.892;2023-01-28T15:22:44;97590.09;;;12.93;40.82
31595;BME280;18200;48.726;8.892;2023-01-28T15:26:46;97595.59;;;12.81;41.47
31595;BME280;18200;48.726;8.892;2023-01-28T15:30:46;97597.84;;;12.64;41.54
31595;BME280;18200;48.726;8.892;2023-01-28T15:34:47;97601.06;;;12.54;41.75
31595;BME280;18200;48.726;8.892;2023-01-28T15:38:47;97594.66;;;13.59;39.23
31595;BME280;18200;48.726;8.892;2023-01-28T15:42:49;97591.19;;;14.35;38.21
31595;BME280;18200;48.726;8.892;2023-01-28T15:46:50;97614.69;;;12.45;41.65
31595;BME280;18200;48.726;8.892;2023-01-28T15:51:08;97606.09;;;13.02;40.59
31595;BME280;18200;48.726;8.892;2023-01-28T15:59:28;97618.25;;;12.33;41.83
31595;BME280;18200;48.726;8.892;2023-01-28T16:03:30;97621.88;;;12.25;41.63
31595;BME280;18200;48.726;8.892;2023-01-28T16:07:32;97624.97;;;12.55;40.98
31595;BME280;18200;48.726;8.892;2023-01-28T16:11:42;97627.75;;;11.12;43.52
31595;BME280;18200;48.726;8.892;2023-01-28T16:15:47;97623.34;;;11.95;42.45
31595;BME280;18200;48.726;8.892;2023-01-28T16:19:55;97625.75;;;12.87;41.10
31595;BME280;18200;48.726;8.892;2023-01-28T16:24:00;97631.69;;;12.77;40.43
31595;BME280;18200;48.726;8.892;2023-01-28T16:28:02;97633.44;;;12.26;41.25
31595;BME280;18200;48.726;8.892;2023-01-28T16:32:02;97638.72;;;12.22;41.43
31595;BME280;18200;48.726;8.892;2023-01-28T16:36:03;97633.06;;;13.02;39.44
31595;BME280;18200;48.726;8.892;2023-01-28T16:40:04;97637.44;;;13.22;38.64
31595;BME280;18200;48.726;8.892;2023-01-28T16:44:05;97643.69;;;12.95;39.28
31595;BME280;18200;48.726;8.892;2023-01-28T16:48:05;97645.69;;;13.29;39.26
31595;BME280;18200;48.726;8.892;2023-01-28T16:52:06;97639.88;;;12.65;39.83
31595;BME280;18200;48.726;8.892;2023-01-28T16:56:12;97637.94;;;13.12;39.23
31595;BME280;18200;48.726;8.892;2023-01-28T17:00:23;97629.06;;;13.27;38.53
31595;BME280;18200;48.726;8.892;2023-01-28T17:04:24;97646.19;;;12.72;39.53
31595;BME280;18200;48.726;8.892;2023-01-28T17:08:24;97630.31;;;13.83;37.85
31595;BME280;18200;48.726;8.892;2023-01-28T17:12:25;97633.44;;;13.85;38.04
31595;BME280;18200;48.726;8.892;2023-01-28T17:16:25;97631.16;;;13.87;37.39
31595;BME280;18200;48.726;8.892;2023-01-28T17:20:26;97642.19;;;13.44;38.40
31595;BME280;18200;48.726;8.892;2023-01-28T17:24:28;97641.50;;;14.39;36.82
31595;BME280;18200;48.726;8.892;2023-01-28T17:28:29;97641.78;;;14.57;36.26
31595;BME280;18200;48.726;8.892;2023-01-28T17:32:29;97648.66;;;14.13;36.84
31595;BME280;18200;48.726;8.892;2023-01-28T17:36:29;97645.44;;;13.69;37.71
31595;BME280;18200;48.726;8.892;2023-01-28T17:40:30;97654.81;;;14.29;36.80
31595;BME280;18200;48.726;8.892;2023-01-28T17:44:31;97653.06;;;14.82;36.02
31595;BME280;18200;48.726;8.892;2023-01-28T17:48:31;97656.47;;;13.79;36.85
31595;BME280;18200;48.726;8.892;2023-01-28T17:52:33;97657.03;;;14.08;37.07
31595;BME280;18200;48.726;8.892;2023-01-28T17:56:33;97660.47;;;14.43;36.20
31595;BME280;18200;48.726;8.892;2023-01-28T18:00:33;97666.13;;;13.99;36.93
31595;BME280;18200;48.726;8.892;2023-01-28T18:04:38;97663.25;;;13.54;37.32
31595;BME280;18200;48.726;8.892;2023-01-28T18:08:39;97672.38;;;13.84;37.18
31595;BME280;18200;48.726;8.892;2023-01-28T18:12:39;97661.13;;;13.82;37.55
31595;BME280;18200;48.726;8.892;2023-01-28T18:16:40;97660.44;;;13.85;36.82
31595;BME280;18200;48.726;8.892;2023-01-28T18:20:40;97656.25;;;14.26;36.29
31595;BME280;18200;48.726;8.892;2023-01-28T18:24:40;97662.78;;;14.06;36.20
31595;BME280;18200;48.726;8.892;2023-01-28T18:28:41;97668.00;;;14.15;36.82
31595;BME280;18200;48.726;8.892;2023-01-28T18:32:41;97667.72;;;14.20;36.72
31595;BME280;18200;48.726;8.892;2023-01-28T18:36:42;97675.97;;;14.27;36.55
31595;BME280;18200;48.726;8.892;2023-01-28T18:40:43;97676.94;;;14.19;35.97
31595;BME280;18200;48.726;8.892;2023-01-28T18:44:44;97678.94;;;14.02;36.52
31595;BME280;18200;48.726;8.892;2023-01-28T18:48:44;97690.88;;;13.32;37.62
31595;BME280;18200;48.726;8.892;2023-01-28T18:52:45;97690.16;;;13.04;38.80
31595;BME280;18200;48.726;8.892;2023-01-28T18:56:47;97694.66;;;12.69;38.85
31595;BME280;18200;48.726;8.892;2023-01-28T19:00:47;97695.59;;;11.93;40.77
31595;BME280;18200;48.726;8.892;2023-01-28T19:04:48;97709.94;;;12.65;39.26
31595;BME280;18200;48.726;8.892;2023-01-28T19:08:57;97695.56;;;12.61;39.41
31595;BME280;18200;48.726;8.892;2023-01-28T19:12:58;97701.31;;;12.04;40.56
31595;BME280;18200;48.726;8.892;2023-01-28T19:16:58;97699.47;;;12.48;40.01
31595;BME280;18200;48.726;8.892;2023-01-28T19:21:03;97698.19;;;12.57;40.43
31595;BME280;18200;48.726;8.892;2023-01-28T19:25:04;97687.47;;;12.61;39.68
31595;BME280;18200;48.726;8.892;2023-01-28T19:29:06;97695.31;;;12.66;39.45
31595;BME280;18200;48.726;8.892;2023-01-28T19:33:08;97704.72;;;13.31;38.67
31595;BME280;18200;48.726;8.892;2023-01-28T19:37:09;97710.22;;;11.32;40.94
31595;BME280;18200;48.726;8.892;2023-01-28T19:41:09;97709.59;;;13.09;38.45
31595;BME280;18200;48.726;8.892;2023-01-28T19:45:12;97710.81;;;13.78;37.55
31595;BME280;18200;48.726;8.892;2023-01-28T19:49:12;97710.19;;;13.18;38.19
31595;BME280;18200;48.726;8.892;2023-01-28T19:53:13;97713.00;;;12.79;38.39
31595;BME280;18200;48.726;8.892;2023-01-28T19:57:14;97707.00;;;12.14;39.67
31595;BME280;18200;48.726;8.892;2023-01-28T20:01:23;97704.63;;;11.73;40.38
31595;BME280;18200;48.726;8.892;2023-01-28T20:05:24;97709.31;;;10.91;41.84
31595;BME280;18200;48.726;8.892;2023-01-28T20:09:24;97710.81;;;12.13;40.50
31595;BME280;18200;48.726;8.892;2023-01-28T20:13:24;97715.47;;;12.84;38.42
31595;BME280;18200;48.726;8.892;2023-01-28T20:17:24;97719.31;;;13.14;37.76
31595;BME280;18200;48.726;8.892;2023-01-28T20:21:27;97725.44;;;13.92;36.80
31595;BME280;18200;48.726;8.892;2023-01-28T20:25:28;97717.47;;;14.19;35.81
31595;BME280;18200;48.726;8.892;2023-01-28T20:29:29;97729.94;;;13.54;37.18
31595;BME280;18200;48.726;8.892;2023-01-28T20:33:29;97736.84;;;13.20;37.73
31595;BME280;18200;48.726;8.892;2023-01-28T20:37:30;97738.25;;;12.59;38.36
31595;BME280;18200;48.726;8.892;2023-01-28T20:41:30;97736.63;;;13.75;37.04
31595;BME280;18200;48.726;8.892;2023-01-28T20:45:31;97757.56;;;13.16;37.42
31595;BME280;18200;48.726;8.892;2023-01-28T20:49:31;97768.16;;;11.05;41.63
31595;BME280;18200;48.726;8.892;2023-01-28T20:53:32;97776.47;;;11.48;41.73
31595;BME280;18200;48.726;8.892;2023-01-28T20:57:33;97781.09;;;11.96;40.71
31595;BME280;18200;48.726;8.892;2023-01-28T21:01:34;97773.38;;;10.89;41.98
31595;BME280;18200;48.726;8.892;2023-01-28T21:05:35;97777.28;;;11.49;40.99
31595;BME280;18200;48.726;8.892;2023-01-28T21:09:35;97770.16;;;10.75;41.64
31595;BME280;18200;48.726;8.892;2023-01-28T21:13:36;97772.22;;;10.78;41.32
31595;BME280;18200;48.726;8.892;2023-01-28T21:17:36;97776.81;;;12.19;39.56
31595;BME280;18200;48.726;8.892;2023-01-28T21:21:36;97778.28;;;10.87;40.18
31595;BME280;18200;48.726;8.892;2023-01-28T21:25:37;97781.25;;;11.19;41.24
31595;BME280;18200;48.726;8.892;2023-01-28T21:29:37;97783.31;;;13.60;36.78
31595;BME280;18200;48.726;8.892;2023-01-28T21:33:38;97781.88;;;13.97;35.64
31595;BME280;18200;48.726;8.892;2023-01-28T21:37:38;97778.34;;;13.15;36.96
31595;BME280;18200;48.726;8.892;2023-01-28T21:41:38;97781.69;;;11.90;38.99
31595;BME280;18200;48.726;8.892;2023-01-28T21:45:39;97769.16;;;11.13;40.67
31595;BME280;18200;48.726;8.892;2023-01-28T21:49:40;97769.03;;;12.58;37.85
31595;BME280;18200;48.726;8.892;2023-01-28T21:53:40;97761.69;;;11.42;39.81
31595;BME280;18200;48.726;8.892;2023-01-28T21:57:41;97773.16;;;12.67;37.78
31595;BME280;18200;48.726;8.892;2023-01-28T22:01:42;97763.09;;;13.23;36.67
31595;BME280;18200;48.726;8.892;2023-01-28T22:05:52;97768.97;;;12.54;37.48
31595;BME280;18200;48.726;8.892;2023-01-28T22:09:53;97773.03;;;11.96;38.49
31595;BME280;18200;48.726;8.892;2023-01-28T22:13:53;97767.91;;;12.59;37.69
31595;BME280;18200;48.726;8.892;2023-01-28T22:17:53;97773.47;;;13.52;36.10
31595;BME280;18200;48.726;8.892;2023-01-28T22:21:54;97777.66;;;11.84;38.25
31595;BME280;18200;48.726;8.892;2023-01-28T22:25:55;97774.16;;;11.83;38.38
31595;BME280;18200;48.726;8.892;2023-01-28T22:29:56;97770.84;;;10.72;39.99
31595;BME280;18200;48.726;8.892;2023-01-28T22:33:56;97778.34;;;11.12;40.05
31595;BME280;18200;48.726;8.892;2023-01-28T22:37:57;97783.31;;;10.89;39.22
31595;BME280;18200;48.726;8.892;2023-01-28T22:41:58;97763.84;;;12.37;37.74
31595;BME280;18200;48.726;8.892;2023-01-28T22:45:59;97766.25;;;12.14;37.18